sensor_id;sensor_type;location;lat;lon;timestamp;temperature;humidity
49236;DHT22;35067;48.134;8.378;2024-03-25T00:00:18;1.90;99.90
49236;DHT22;35067;48.134;8.378;2024-03-25T00:01:20;1.90;99.90
49236;DHT22;35067;48.134;8.378;2024-03-25T00:02:21;1.80;99.90
49236;DHT22;35067;48.134;8.378;2024-03-25T00:03:22;1.80;99.90
49236;DHT22;35067;48.134;8.378;2024-03-25T00:04:22;1.70;99.90
49236;DHT22;35067;48.134;8.378;2024-03-25T00:05:23;1.70;99.90
49236;DHT22;35067;48.134;8.378;2024-03-25T00:06:25;1.70;99.90
49236;DHT22;35067;48.134;8.378;2024-03-25T00:07:26;1.70;99.90
49236;DHT22;35067;48.134;8.378;2024-03-25T00:08:27;1.70;99.90
49236;DHT22;35067;48.134;8.378;2024-03-25T00:09:28;1.60;99.90
49236;DHT22;35067;48.134;8.378;2024-03-25T00:10:28;1.70;99.90
49236;DHT22;35067;48.134;8.378;2024-03-25T00:11:29;1.70;99.90
49236;DHT22;35067;48.134;8.378;2024-03-25T00:12:30;1.70;99.90
49236;DHT22;35067;48.134;8.378;2024-03-25T00:13:30;1.60;99.90
49236;DHT22;35067;48.134;8.378;2024-03-25T00:14:31;1.70;99.90
49236;DHT22;35067;48.134;8.378;2024-03-25T00:15:32;1.60;99.90
49236;DHT22;35067;48.134;8.378;2024-03-25T00:16:35;1.60;99.90
49236;DHT22;35067;48.134;8.378;2024-03-25T00:17:36;1.50;99.90
49236;DHT22;35067;48.134;8.378;2024-03-25T00:18:36;1.60;99.90
49236;DHT22;35067;48.134;8.378;2024-03-25T00:19:37;1.60;99.90
49236;DHT22;35067;48.134;8.378;2024-03-25T00:20:38;1.60;99.90
49236;DHT22;35067;48.134;8.378;2024-03-25T00:21:39;1.60;99.90
49236;DHT22;35067;48.134;8.378;2024-03-25T00:22:40;1.60;99.90
49236;DHT22;35067;48.134;8.378;2024-03-25T00:23:41;1.60;99.90
49236;DHT22;35067;48.134;8.378;2024-03-25T00:24:41;1.60;99.90
49236;DHT22;35067;48.134;8.378;2024-03-25T00:25:42;1.60;99.90
49236;DHT22;35067;48.134;8.378;2024-03-25T00:26:43;1.60;99.90
49236;DHT22;35067;48.134;8.378;2024-03-25T00:27:43;1.70;99.90
49236;DHT22;35067;48.134;8.378;2024-03-25T00:28:44;1.70;99.90
49236;DHT22;35067;48.134;8.378;2024-03-25T00:29:45;1.70;99.90
49236;DHT22;35067;48.134;8.378;2024-03-25T00:30:45;1.70;99.90
49236;DHT22;35067;48.134;8.378;2024-03-25T00:31:46;1.70;99.90
49236;DHT22;35067;48.134;8.378;2024-03-25T00:32:47;1.60;99.90
49236;DHT22;35067;48.134;8.378;2024-03-25T00:33:47;1.60;99.90
49236;DHT22;35067;48.134;8.378;2024-03-25T00:34:48;1.60;99.90
49236;DHT22;35067;48.134;8.378;2024-03-25T00:35:49;1.50;99.90
49236;DHT22;35067;48.134;8.378;2024-03-25T00:36:50;1.60;99.90
49236;DHT22;35067;48.134;8.378;2024-03-25T00:37:50;1.50;99.90
49236;DHT22;35067;48.134;8.378;2024-03-25T00:38:51;1.50;99.90
49236;DHT22;35067;48.134;8.378;2024-03-25T00:39:52;1.50;99.90
49236;DHT22;35067;48.134;8.378;2024-03-25T00:40:52;1.40;99.90
49236;DHT22;35067;48.134;8.378;2024-03-25T00:41:54;1.40;99.90
49236;DHT22;35067;48.134;8.378;2024-03-25T00:42:55;1.40;99.90
49236;DHT22;35067;48.134;8.378;2024-03-25T00:43:55;1.40;99.90
49236;DHT22;35067;48.134;8.378;2024-03-25T00:44:56;1.30;99.90
49236;DHT22;35067;48.134;8.378;2024-03-25T00:45:56;1.30;99.90
49236;DHT22;35067;48.134;8.378;2024-03-25T00:46:57;1.30;99.90
49236;DHT22;35067;48.134;8.378;2024-03-25T00:47:58;1.30;99.90
49236;DHT22;35067;48.134;8.378;2024-03-25T00:48:59;1.30;99.90
49236;DHT22;35067;48.134;8.378;2024-03-25T00:50:00;1.30;99.90
49236;DHT22;35067;48.134;8.378;2024-03-25T00:51:01;1.20;99.90
49236;DHT22;35067;48.134;8.378;2024-03-25T00:52:02;1.20;99.90
49236;DHT22;35067;48.134;8.378;2024-03-25T00:53:03;1.10;99.90
49236;DHT22;35067;48.134;8.378;2024-03-25T00:54:04;1.10;99.90
49236;DHT22;35067;48.134;8.378;2024-03-25T00:55:05;1.10;99.90
49236;DHT22;35067;48.134;8.378;2024-03-25T00:56:06;1.10;99.90
49236;DHT22;35067;48.134;8.378;2024-03-25T00:57:06;1.10;99.90
49236;DHT22;35067;48.134;8.378;2024-03-25T00:58:08;1.10;99.90
49236;DHT22;35067;48.134;8.378;2024-03-25T00:59:08;1.00;99.90
49236;DHT22;35067;48.134;8.378;2024-03-25T01:00:10;1.00;99.90
49236;DHT22;35067;48.134;8.378;2024-03-25T01:01:11;0.90;99.90
49236;DHT22;35067;48.134;8.378;2024-03-25T01:02:12;0.90;99.90
49236;DHT22;35067;48.134;8.378;2024-03-25T01:03:12;1.00;99.90
49236;DHT22;35067;48.134;8.378;2024-03-25T01:04:13;0.90;99.90
49236;DHT22;35067;48.134;8.378;2024-03-25T01:05:14;1.00;99.90
49236;DHT22;35067;48.134;8.378;2024-03-25T01:06:14;0.90;99.90
49236;DHT22;35067;48.134;8.378;2024-03-25T01:07:15;1.00;99.90
49236;DHT22;35067;48.134;8.378;2024-03-25T01:08:16;1.00;99.90
49236;DHT22;35067;48.134;8.378;2024-03-25T01:09:17;1.00;99.90
49236;DHT22;35067;48.134;8.378;2024-03-25T01:10:18;0.90;99.90
49236;DHT22;35067;48.134;8.378;2024-03-25T01:11:19;1.00;99.90
49236;DHT22;35067;48.134;8.378;2024-03-25T01:12:19;0.90;99.90
49236;DHT22;35067;48.134;8.378;2024-03-25T01:13:20;0.90;99.90
49236;DHT22;35067;48.134;8.378;2024-03-25T01:14:21;0.90;99.90
49236;DHT22;35067;48.134;8.378;2024-03-25T01:15:22;0.90;99.90
49236;DHT22;35067;48.134;8.378;2024-03-25T01:16:23;0.80;99.90
49236;DHT22;35067;48.134;8.378;2024-03-25T01:17:23;0.70;99.90
49236;DHT22;35067;48.134;8.378;2024-03-25T01:18:24;0.70;99.90
49236;DHT22;35067;48.134;8.378;2024-03-25T01:19:25;0.70;99.90
49236;DHT22;35067;48.134;8.378;2024-03-25T01:20:26;0.70;99.90
49236;DHT22;35067;48.134;8.378;2024-03-25T01:21:27;0.80;99.90
49236;DHT22;35067;48.134;8.378;2024-03-25T01:22:27;0.60;99.90
49236;DHT22;35067;48.134;8.378;2024-03-25T01:23:28;0.60;99.90
49236;DHT22;35067;48.134;8.378;2024-03-25T01:24:29;0.70;99.90
49236;DHT22;35067;48.134;8.378;2024-03-25T01:25:31;0.70;99.90
49236;DHT22;35067;48.134;8.378;2024-03-25T01:26:31;0.70;99.90
49236;DHT22;35067;48.134;8.378;2024-03-25T01:27:32;0.60;99.90
49236;DHT22;35067;48.134;8.378;2024-03-25T01:28:33;0.60;99.90
49236;DHT22;35067;48.134;8.378;2024-03-25T01:29:33;0.60;99.90
49236;DHT22;35067;48.134;8.378;2024-03-25T01:30:34;0.70;99.90
49236;DHT22;35067;48.134;8.378;2024-03-25T01:31:35;0.60;99.90
49236;DHT22;35067;48.134;8.378;2024-03-25T01:32:36;0.40;99.90
49236;DHT22;35067;48.134;8.378;2024-03-25T01:33:37;0.40;99.90
49236;DHT22;35067;48.134;8.378;2024-03-25T01:34:37;0.40;99.90
49236;DHT22;35067;48.134;8.378;2024-03-25T01:35:38;0.40;99.90
49236;DHT22;35067;48.134;8.378;2024-03-25T01:36:39;0.40;99.90
49236;DHT22;35067;48.134;8.378;2024-03-25T01:37:40;0.50;99.90
49236;DHT22;35067;48.134;8.378;2024-03-25T01:38:40;0.40;99.90
49236;DHT22;35067;48.134;8.378;2024-03-25T01:39:41;0.40;99.90
49236;DHT22;35067;48.134;8.378;2024-03-25T01:40:42;0.40;99.90
49236;DHT22;35067;48.134;8.378;2024-03-25T01:41:42;0.40;99.90
49236;DHT22;35067;48.134;8.378;2024-03-25T01:42:43;0.40;99.90
49236;DHT22;35067;48.134;8.378;2024-03-25T01:43:45;0.40;99.90
49236;DHT22;35067;48.134;8.378;2024-03-25T01:44:45;0.50;99.90
49236;DHT22;35067;48.134;8.378;2024-03-25T01:45:47;0.40;99.90
49236;DHT22;35067;48.134;8.378;2024-03-25T01:46:49;0.40;99.90
49236;DHT22;35067;48.134;8.378;2024-03-25T01:47:50;0.40;99.90
49236;DHT22;35067;48.134;8.378;2024-03-25T01:48:52;0.40;99.90
49236;DHT22;35067;48.134;8.378;2024-03-25T01:49:53;0.40;99.90
49236;DHT22;35067;48.134;8.378;2024-03-25T01:50:56;0.30;99.90
49236;DHT22;35067;48.134;8.378;2024-03-25T01:51:58;0.30;99.90
49236;DHT22;35067;48.134;8.378;2024-03-25T01:52:59;0.40;99.90
49236;DHT22;35067;48.134;8.378;2024-03-25T01:54:00;0.30;99.90
49236;DHT22;35067;48.134;8.378;2024-03-25T01:55:02;0.30;99.90
49236;DHT22;35067;48.134;8.378;2024-03-25T01:56:04;0.30;99.90
49236;DHT22;35067;48.134;8.378;2024-03-25T01:57:06;0.40;99.90
49236;DHT22;35067;48.134;8.378;2024-03-25T01:58:06;0.40;99.90
49236;DHT22;35067;48.134;8.378;2024-03-25T01:59:07;0.50;99.90
49236;DHT22;35067;48.134;8.378;2024-03-25T02:00:09;0.40;99.90
49236;DHT22;35067;48.134;8.378;2024-03-25T02:01:11;0.40;99.90
49236;DHT22;35067;48.134;8.378;2024-03-25T02:02:14;0.30;99.90
49236;DHT22;35067;48.134;8.378;2024-03-25T02:03:15;0.30;99.90
49236;DHT22;35067;48.134;8.378;2024-03-25T02:04:16;0.30;99.90
49236;DHT22;35067;48.134;8.378;2024-03-25T02:05:18;0.30;99.90
49236;DHT22;35067;48.134;8.378;2024-03-25T02:06:20;0.20;99.90
49236;DHT22;35067;48.134;8.378;2024-03-25T02:07:22;0.20;99.90
49236;DHT22;35067;48.134;8.378;2024-03-25T02:08:26;0.10;99.90
49236;DHT22;35067;48.134;8.378;2024-03-25T02:09:28;0.30;99.90
49236;DHT22;35067;48.134;8.378;2024-03-25T02:10:29;0.10;99.90
49236;DHT22;35067;48.134;8.378;2024-03-25T02:11:30;0.10;99.90
49236;DHT22;35067;48.134;8.378;2024-03-25T02:12:31;0.20;99.90
49236;DHT22;35067;48.134;8.378;2024-03-25T02:13:34;0.20;99.90
49236;DHT22;35067;48.134;8.378;2024-03-25T02:14:36;0.30;99.90
49236;DHT22;35067;48.134;8.378;2024-03-25T02:15:36;0.30;99.90
49236;DHT22;35067;48.134;8.378;2024-03-25T02:16:37;0.30;99.90
49236;DHT22;35067;48.134;8.378;2024-03-25T02:17:38;0.30;99.90
49236;DHT22;35067;48.134;8.378;2024-03-25T02:18:39;0.30;99.90
49236;DHT22;35067;48.134;8.378;2024-03-25T02:19:40;0.30;99.90
49236;DHT22;35067;48.134;8.378;2024-03-25T02:20:41;0.30;99.90
49236;DHT22;35067;48.134;8.378;2024-03-25T02:21:42;0.30;99.90
49236;DHT22;35067;48.134;8.378;2024-03-25T02:22:43;0.30;99.90
49236;DHT22;35067;48.134;8.378;2024-03-25T02:23:45;0.30;99.90
49236;DHT22;35067;48.134;8.378;2024-03-25T02:24:46;0.30;99.90
49236;DHT22;35067;48.134;8.378;2024-03-25T02:25:53;0.40;99.90
49236;DHT22;35067;48.134;8.378;2024-03-25T02:26:54;0.40;99.90
49236;DHT22;35067;48.134;8.378;2024-03-25T02:27:55;0.40;99.90
49236;DHT22;35067;48.134;8.378;2024-03-25T02:28:55;0.40;99.90
49236;DHT22;35067;48.134;8.378;2024-03-25T02:30:08;0.30;99.90
49236;DHT22;35067;48.134;8.378;2024-03-25T02:31:11;0.30;99.90
49236;DHT22;35067;48.134;8.378;2024-03-25T02:32:12;0.30;99.90
49236;DHT22;35067;48.134;8.378;2024-03-25T02:33:13;0.30;99.90
49236;DHT22;35067;48.134;8.378;2024-03-25T02:34:14;0.30;99.90
49236;DHT22;35067;48.134;8.378;2024-03-25T02:35:16;0.30;99.90
49236;DHT22;35067;48.134;8.378;2024-03-25T02:36:17;0.30;99.90
49236;DHT22;35067;48.134;8.378;2024-03-25T02:37:18;0.40;99.90
49236;DHT22;35067;48.134;8.378;2024-03-25T02:38:19;0.30;99.90
49236;DHT22;35067;48.134;8.378;2024-03-25T02:39:20;0.30;99.90
49236;DHT22;35067;48.134;8.378;2024-03-25T02:40:21;0.30;99.90
49236;DHT22;35067;48.134;8.378;2024-03-25T02:41:23;0.40;99.90
49236;DHT22;35067;48.134;8.378;2024-03-25T02:42:28;0.30;99.90
49236;DHT22;35067;48.134;8.378;2024-03-25T02:43:29;0.30;99.90
49236;DHT22;35067;48.134;8.378;2024-03-25T02:44:31;0.30;99.90
49236;DHT22;35067;48.134;8.378;2024-03-25T02:45:32;0.30;99.90
49236;DHT22;35067;48.134;8.378;2024-03-25T02:46:34;0.20;99.90
49236;DHT22;35067;48.134;8.378;2024-03-25T02:47:34;0.30;99.90
49236;DHT22;35067;48.134;8.378;2024-03-25T02:48:35;0.30;99.90
49236;DHT22;35067;48.134;8.378;2024-03-25T02:49:36;0.30;99.90
49236;DHT22;35067;48.134;8.378;2024-03-25T02:50:36;0.30;99.90
49236;DHT22;35067;48.134;8.378;2024-03-25T02:51:37;0.40;99.90
49236;DHT22;35067;48.134;8.378;2024-03-25T02:52:38;0.40;99.90
49236;DHT22;35067;48.134;8.378;2024-03-25T02:53:38;0.40;99.90
49236;DHT22;35067;48.134;8.378;2024-03-25T02:54:39;0.40;99.90
49236;DHT22;35067;48.134;8.378;2024-03-25T02:55:40;0.40;99.90
49236;DHT22;35067;48.134;8.378;2024-03-25T02:56:40;0.40;99.90
49236;DHT22;35067;48.134;8.378;2024-03-25T02:57:41;0.40;99.90
49236;DHT22;35067;48.134;8.378;2024-03-25T02:58:42;0.40;99.90
49236;DHT22;35067;48.134;8.378;2024-03-25T02:59:42;0.40;99.90
49236;DHT22;35067;48.134;8.378;2024-03-25T03:00:43;0.40;99.90
49236;DHT22;35067;48.134;8.378;2024-03-25T03:01:44;0.40;99.90
49236;DHT22;35067;48.134;8.378;2024-03-25T03:02:44;0.30;99.90
49236;DHT22;35067;48.134;8.378;2024-03-25T03:03:45;0.40;99.90
49236;DHT22;35067;48.134;8.378;2024-03-25T03:04:46;0.30;99.90
49236;DHT22;35067;48.134;8.378;2024-03-25T03:05:46;0.20;99.90
49236;DHT22;35067;48.134;8.378;2024-03-25T03:06:47;0.10;99.90
49236;DHT22;35067;48.134;8.378;2024-03-25T03:07:48;0.00;99.90
49236;DHT22;35067;48.134;8.378;2024-03-25T03:08:48;0.00;99.90
49236;DHT22;35067;48.134;8.378;2024-03-25T03:09:49;0.00;99.90
49236;DHT22;35067;48.134;8.378;2024-03-25T03:10:50;0.00;99.90
49236;DHT22;35067;48.134;8.378;2024-03-25T03:11:50;0.10;99.90
49236;DHT22;35067;48.134;8.378;2024-03-25T03:12:51;0.00;99.90
49236;DHT22;35067;48.134;8.378;2024-03-25T03:13:52;0.00;99.90
49236;DHT22;35067;48.134;8.378;2024-03-25T03:14:52;0.00;99.90
49236;DHT22;35067;48.134;8.378;2024-03-25T03:15:53;0.00;99.90
49236;DHT22;35067;48.134;8.378;2024-03-25T03:16:53;0.00;99.90
49236;DHT22;35067;48.134;8.378;2024-03-25T03:17:57;0.00;99.90
49236;DHT22;35067;48.134;8.378;2024-03-25T03:18:57;0.10;99.90
49236;DHT22;35067;48.134;8.378;2024-03-25T03:19:58;0.10;99.90
49236;DHT22;35067;48.134;8.378;2024-03-25T03:20:59;0.10;99.90
49236;DHT22;35067;48.134;8.378;2024-03-25T03:21:59;0.10;99.90
49236;DHT22;35067;48.134;8.378;2024-03-25T03:23:00;0.10;99.90
49236;DHT22;35067;48.134;8.378;2024-03-25T03:24:01;0.10;99.90
49236;DHT22;35067;48.134;8.378;2024-03-25T03:25:01;0.10;99.90
49236;DHT22;35067;48.134;8.378;2024-03-25T03:26:03;0.10;99.90
49236;DHT22;35067;48.134;8.378;2024-03-25T03:27:04;0.10;99.90
49236;DHT22;35067;48.134;8.378;2024-03-25T03:28:04;0.10;99.90
49236;DHT22;35067;48.134;8.378;2024-03-25T03:29:05;0.00;99.90
49236;DHT22;35067;48.134;8.378;2024-03-25T03:30:06;0.00;99.90
49236;DHT22;35067;48.134;8.378;2024-03-25T03:31:07;0.00;99.90
49236;DHT22;35067;48.134;8.378;2024-03-25T03:32:08;-0.10;99.90
49236;DHT22;35067;48.134;8.378;2024-03-25T03:33:08;-0.10;99.90
49236;DHT22;35067;48.134;8.378;2024-03-25T03:34:09;0.00;99.90
49236;DHT22;35067;48.134;8.378;2024-03-25T03:35:10;-0.10;99.90
49236;DHT22;35067;48.134;8.378;2024-03-25T03:36:10;-0.20;99.90
49236;DHT22;35067;48.134;8.378;2024-03-25T03:37:11;-0.20;99.90
49236;DHT22;35067;48.134;8.378;2024-03-25T03:38:12;-0.20;99.90
49236;DHT22;35067;48.134;8.378;2024-03-25T03:39:13;-0.20;99.90
49236;DHT22;35067;48.134;8.378;2024-03-25T03:40:14;-0.30;99.90
49236;DHT22;35067;48.134;8.378;2024-03-25T03:41:15;-0.40;99.90
49236;DHT22;35067;48.134;8.378;2024-03-25T03:42:15;-0.30;99.90
49236;DHT22;35067;48.134;8.378;2024-03-25T03:43:16;-0.40;99.90
49236;DHT22;35067;48.134;8.378;2024-03-25T03:44:16;-0.50;99.90
49236;DHT22;35067;48.134;8.378;2024-03-25T03:45:17;-0.40;99.90
49236;DHT22;35067;48.134;8.378;2024-03-25T03:46:18;-0.40;99.90
49236;DHT22;35067;48.134;8.378;2024-03-25T03:47:19;-0.40;99.90
49236;DHT22;35067;48.134;8.378;2024-03-25T03:48:19;-0.40;99.90
49236;DHT22;35067;48.134;8.378;2024-03-25T03:49:20;-0.40;99.90
49236;DHT22;35067;48.134;8.378;2024-03-25T03:50:21;-0.40;99.90
49236;DHT22;35067;48.134;8.378;2024-03-25T03:51:21;-0.50;99.90
49236;DHT22;35067;48.134;8.378;2024-03-25T03:52:22;-0.60;99.90
49236;DHT22;35067;48.134;8.378;2024-03-25T03:53:23;-0.60;99.90
49236;DHT22;35067;48.134;8.378;2024-03-25T03:54:24;-0.70;99.90
49236;DHT22;35067;48.134;8.378;2024-03-25T03:55:24;-0.70;99.90
49236;DHT22;35067;48.134;8.378;2024-03-25T03:56:25;-0.70;99.90
49236;DHT22;35067;48.134;8.378;2024-03-25T03:57:26;-0.60;99.90
49236;DHT22;35067;48.134;8.378;2024-03-25T03:58:26;-0.60;99.90
49236;DHT22;35067;48.134;8.378;2024-03-25T03:59:27;-0.60;99.90
49236;DHT22;35067;48.134;8.378;2024-03-25T04:00:28;-0.50;99.90
49236;DHT22;35067;48.134;8.378;2024-03-25T04:01:28;-0.60;99.90
49236;DHT22;35067;48.134;8.378;2024-03-25T04:02:29;-0.60;99.90
49236;DHT22;35067;48.134;8.378;2024-03-25T04:03:30;-0.70;99.90
49236;DHT22;35067;48.134;8.378;2024-03-25T04:04:31;-0.60;99.90
49236;DHT22;35067;48.134;8.378;2024-03-25T04:05:31;-0.60;99.90
49236;DHT22;35067;48.134;8.378;2024-03-25T04:06:32;-0.70;99.90
49236;DHT22;35067;48.134;8.378;2024-03-25T04:07:33;-0.70;99.90
49236;DHT22;35067;48.134;8.378;2024-03-25T04:08:33;-0.70;99.90
49236;DHT22;35067;48.134;8.378;2024-03-25T04:09:34;-0.70;99.90
49236;DHT22;35067;48.134;8.378;2024-03-25T04:10:35;-0.70;99.90
49236;DHT22;35067;48.134;8.378;2024-03-25T04:11:36;-0.70;99.90
49236;DHT22;35067;48.134;8.378;2024-03-25T04:12:38;-0.70;99.90
49236;DHT22;35067;48.134;8.378;2024-03-25T04:13:39;-0.80;99.90
49236;DHT22;35067;48.134;8.378;2024-03-25T04:14:40;-0.70;99.90
49236;DHT22;35067;48.134;8.378;2024-03-25T04:15:43;-0.80;99.90
49236;DHT22;35067;48.134;8.378;2024-03-25T04:16:43;-0.80;99.90
49236;DHT22;35067;48.134;8.378;2024-03-25T04:17:44;-0.80;99.90
49236;DHT22;35067;48.134;8.378;2024-03-25T04:18:47;-0.90;99.90
49236;DHT22;35067;48.134;8.378;2024-03-25T04:19:51;-1.00;99.90
49236;DHT22;35067;48.134;8.378;2024-03-25T04:20:52;-1.00;99.90
49236;DHT22;35067;48.134;8.378;2024-03-25T04:21:55;-0.90;99.90
49236;DHT22;35067;48.134;8.378;2024-03-25T04:22:56;-0.90;99.90
49236;DHT22;35067;48.134;8.378;2024-03-25T04:23:57;-1.00;99.90
49236;DHT22;35067;48.134;8.378;2024-03-25T04:24:58;-0.90;99.90
49236;DHT22;35067;48.134;8.378;2024-03-25T04:26:01;-0.90;99.90
49236;DHT22;35067;48.134;8.378;2024-03-25T04:27:02;-0.90;99.90
49236;DHT22;35067;48.134;8.378;2024-03-25T04:28:04;-0.90;99.90
49236;DHT22;35067;48.134;8.378;2024-03-25T04:29:08;-0.90;99.90
49236;DHT22;35067;48.134;8.378;2024-03-25T04:30:10;-0.80;99.90
49236;DHT22;35067;48.134;8.378;2024-03-25T04:31:11;-0.80;99.90
49236;DHT22;35067;48.134;8.378;2024-03-25T04:32:12;-0.80;99.90
49236;DHT22;35067;48.134;8.378;2024-03-25T04:33:13;-0.70;99.90
49236;DHT22;35067;48.134;8.378;2024-03-25T04:34:14;-0.90;99.90
49236;DHT22;35067;48.134;8.378;2024-03-25T04:35:14;-0.90;99.90
49236;DHT22;35067;48.134;8.378;2024-03-25T04:36:15;-1.00;99.90
49236;DHT22;35067;48.134;8.378;2024-03-25T04:37:16;-1.10;99.90
49236;DHT22;35067;48.134;8.378;2024-03-25T04:38:16;-1.10;99.90
49236;DHT22;35067;48.134;8.378;2024-03-25T04:39:17;-1.00;99.90
49236;DHT22;35067;48.134;8.378;2024-03-25T04:40:19;-1.10;99.90
49236;DHT22;35067;48.134;8.378;2024-03-25T04:41:20;-1.20;99.90
49236;DHT22;35067;48.134;8.378;2024-03-25T04:42:24;-1.20;99.90
49236;DHT22;35067;48.134;8.378;2024-03-25T04:43:24;-1.20;99.90
49236;DHT22;35067;48.134;8.378;2024-03-25T04:44:25;-1.20;99.90
49236;DHT22;35067;48.134;8.378;2024-03-25T04:45:26;-1.10;99.90
49236;DHT22;35067;48.134;8.378;2024-03-25T04:46:26;-1.10;99.90
49236;DHT22;35067;48.134;8.378;2024-03-25T04:47:27;-1.10;99.90
49236;DHT22;35067;48.134;8.378;2024-03-25T04:48:28;-1.10;99.90
49236;DHT22;35067;48.134;8.378;2024-03-25T04:49:28;-1.10;99.90
49236;DHT22;35067;48.134;8.378;2024-03-25T04:50:30;-1.10;99.90
49236;DHT22;35067;48.134;8.378;2024-03-25T04:51:31;-1.10;99.90
49236;DHT22;35067;48.134;8.378;2024-03-25T04:52:32;-1.20;99.90
49236;DHT22;35067;48.134;8.378;2024-03-25T04:53:32;-1.30;99.90
49236;DHT22;35067;48.134;8.378;2024-03-25T04:54:33;-1.30;99.90
49236;DHT22;35067;48.134;8.378;2024-03-25T04:55:34;-1.30;99.90
49236;DHT22;35067;48.134;8.378;2024-03-25T04:56:34;-1.20;99.90
49236;DHT22;35067;48.134;8.378;2024-03-25T04:57:35;-1.10;99.90
49236;DHT22;35067;48.134;8.378;2024-03-25T04:58:36;-1.10;99.90
49236;DHT22;35067;48.134;8.378;2024-03-25T04:59:36;-1.10;99.90
49236;DHT22;35067;48.134;8.378;2024-03-25T05:00:37;-1.20;99.90
49236;DHT22;35067;48.134;8.378;2024-03-25T05:01:38;-1.10;99.90
49236;DHT22;35067;48.134;8.378;2024-03-25T05:02:38;-1.10;99.90
49236;DHT22;35067;48.134;8.378;2024-03-25T05:03:39;-1.10;99.90
49236;DHT22;35067;48.134;8.378;2024-03-25T05:04:40;-1.10;99.90
49236;DHT22;35067;48.134;8.378;2024-03-25T05:05:40;-1.20;99.90
49236;DHT22;35067;48.134;8.378;2024-03-25T05:06:41;-1.10;99.90
49236;DHT22;35067;48.134;8.378;2024-03-25T05:07:42;-1.20;99.90
49236;DHT22;35067;48.134;8.378;2024-03-25T05:08:42;-1.20;99.90
49236;DHT22;35067;48.134;8.378;2024-03-25T05:09:43;-1.20;99.90
49236;DHT22;35067;48.134;8.378;2024-03-25T05:10:44;-1.30;99.90
49236;DHT22;35067;48.134;8.378;2024-03-25T05:11:45;-1.30;99.90
49236;DHT22;35067;48.134;8.378;2024-03-25T05:12:46;-1.30;99.90
49236;DHT22;35067;48.134;8.378;2024-03-25T05:13:49;-1.30;99.90
49236;DHT22;35067;48.134;8.378;2024-03-25T05:14:50;-1.30;99.90
49236;DHT22;35067;48.134;8.378;2024-03-25T05:15:51;-1.30;99.90
49236;DHT22;35067;48.134;8.378;2024-03-25T05:16:52;-1.30;99.90
49236;DHT22;35067;48.134;8.378;2024-03-25T05:17:53;-1.30;99.90
49236;DHT22;35067;48.134;8.378;2024-03-25T05:18:54;-1.30;99.90
49236;DHT22;35067;48.134;8.378;2024-03-25T05:19:55;-1.30;99.90
49236;DHT22;35067;48.134;8.378;2024-03-25T05:20:55;-1.40;99.90
49236;DHT22;35067;48.134;8.378;2024-03-25T05:21:56;-1.40;99.90
49236;DHT22;35067;48.134;8.378;2024-03-25T05:22:57;-1.30;99.90
49236;DHT22;35067;48.134;8.378;2024-03-25T05:23:58;-1.30;99.90
49236;DHT22;35067;48.134;8.378;2024-03-25T05:24:58;-1.20;99.90
49236;DHT22;35067;48.134;8.378;2024-03-25T05:25:59;-1.20;99.90
49236;DHT22;35067;48.134;8.378;2024-03-25T05:27:00;-1.20;99.90
49236;DHT22;35067;48.134;8.378;2024-03-25T05:28:01;-1.20;99.90
49236;DHT22;35067;48.134;8.378;2024-03-25T05:29:02;-1.20;99.90
49236;DHT22;35067;48.134;8.378;2024-03-25T05:30:03;-1.20;99.90
49236;DHT22;35067;48.134;8.378;2024-03-25T05:31:09;-1.20;99.90
49236;DHT22;35067;48.134;8.378;2024-03-25T05:32:10;-1.10;99.90
49236;DHT22;35067;48.134;8.378;2024-03-25T05:33:11;-1.00;99.90
49236;DHT22;35067;48.134;8.378;2024-03-25T05:34:11;-1.00;99.90
49236;DHT22;35067;48.134;8.378;2024-03-25T05:35:14;-1.00;99.90
49236;DHT22;35067;48.134;8.378;2024-03-25T05:36:15;-1.10;99.90
49236;DHT22;35067;48.134;8.378;2024-03-25T05:37:16;-1.10;99.90
49236;DHT22;35067;48.134;8.378;2024-03-25T05:38:16;-1.00;99.90
49236;DHT22;35067;48.134;8.378;2024-03-25T05:39:17;-1.00;99.90
49236;DHT22;35067;48.134;8.378;2024-03-25T05:40:18;-1.00;99.90
49236;DHT22;35067;48.134;8.378;2024-03-25T05:41:19;-1.00;99.90
49236;DHT22;35067;48.134;8.378;2024-03-25T05:42:20;-1.00;99.90
49236;DHT22;35067;48.134;8.378;2024-03-25T05:43:21;-1.00;99.90
49236;DHT22;35067;48.134;8.378;2024-03-25T05:44:22;-1.00;99.90
49236;DHT22;35067;48.134;8.378;2024-03-25T05:45:22;-1.00;99.90
49236;DHT22;35067;48.134;8.378;2024-03-25T05:46:23;-1.00;99.90
49236;DHT22;35067;48.134;8.378;2024-03-25T05:47:24;-1.00;99.90
49236;DHT22;35067;48.134;8.378;2024-03-25T05:48:25;-0.90;99.90
49236;DHT22;35067;48.134;8.378;2024-03-25T05:49:26;-0.80;99.90
49236;DHT22;35067;48.134;8.378;2024-03-25T05:50:26;-0.90;99.90
49236;DHT22;35067;48.134;8.378;2024-03-25T05:51:27;-0.80;99.90
49236;DHT22;35067;48.134;8.378;2024-03-25T05:52:31;-0.90;99.90
49236;DHT22;35067;48.134;8.378;2024-03-25T05:53:32;-0.90;99.90
49236;DHT22;35067;48.134;8.378;2024-03-25T05:54:33;-0.90;99.90
49236;DHT22;35067;48.134;8.378;2024-03-25T05:55:33;-0.90;99.90
49236;DHT22;35067;48.134;8.378;2024-03-25T05:56:34;-0.90;99.90
49236;DHT22;35067;48.134;8.378;2024-03-25T05:57:35;-0.90;99.90
49236;DHT22;35067;48.134;8.378;2024-03-25T05:58:35;-0.90;99.90
49236;DHT22;35067;48.134;8.378;2024-03-25T05:59:36;-0.90;99.90
49236;DHT22;35067;48.134;8.378;2024-03-25T06:00:37;-0.80;99.90
49236;DHT22;35067;48.134;8.378;2024-03-25T06:01:38;-0.80;99.90
49236;DHT22;35067;48.134;8.378;2024-03-25T06:02:40;-0.70;99.90
49236;DHT22;35067;48.134;8.378;2024-03-25T06:03:41;-0.70;99.90
49236;DHT22;35067;48.134;8.378;2024-03-25T06:04:41;-0.70;99.90
49236;DHT22;35067;48.134;8.378;2024-03-25T06:05:42;-0.70;99.90
49236;DHT22;35067;48.134;8.378;2024-03-25T06:06:43;-0.70;99.90
49236;DHT22;35067;48.134;8.378;2024-03-25T06:07:43;-0.70;99.90
49236;DHT22;35067;48.134;8.378;2024-03-25T06:08:44;-0.70;99.90
49236;DHT22;35067;48.134;8.378;2024-03-25T06:09:45;-0.60;99.90
49236;DHT22;35067;48.134;8.378;2024-03-25T06:10:47;-0.60;99.90
49236;DHT22;35067;48.134;8.378;2024-03-25T06:11:47;-0.50;99.90
49236;DHT22;35067;48.134;8.378;2024-03-25T06:12:48;-0.50;99.90
49236;DHT22;35067;48.134;8.378;2024-03-25T06:13:49;-0.50;99.90
49236;DHT22;35067;48.134;8.378;2024-03-25T06:14:49;-0.50;99.90
49236;DHT22;35067;48.134;8.378;2024-03-25T06:15:50;-0.60;99.90
49236;DHT22;35067;48.134;8.378;2024-03-25T06:16:51;-0.60;99.90
49236;DHT22;35067;48.134;8.378;2024-03-25T06:17:51;-0.50;99.90
49236;DHT22;35067;48.134;8.378;2024-03-25T06:18:52;-0.50;99.90
49236;DHT22;35067;48.134;8.378;2024-03-25T06:19:53;-0.50;99.90
49236;DHT22;35067;48.134;8.378;2024-03-25T06:20:53;-0.50;99.90
49236;DHT22;35067;48.134;8.378;2024-03-25T06:21:54;-0.50;99.90
49236;DHT22;35067;48.134;8.378;2024-03-25T06:22:55;-0.50;99.90
49236;DHT22;35067;48.134;8.378;2024-03-25T06:23:55;-0.50;99.90
49236;DHT22;35067;48.134;8.378;2024-03-25T06:24:56;-0.50;99.90
49236;DHT22;35067;48.134;8.378;2024-03-25T06:25:57;-0.50;99.90
49236;DHT22;35067;48.134;8.378;2024-03-25T06:26:58;-0.60;99.90
49236;DHT22;35067;48.134;8.378;2024-03-25T06:27:59;-0.50;99.90
49236;DHT22;35067;48.134;8.378;2024-03-25T06:28:59;-0.50;99.90